Terminal Aerodrome Forecast
Issued by NWS

Home | Current Version | Previous Version | Text Only | Print | Product List | Glossary On
Versions: 1 2 3 4 5 6 7 8 9 10 11 12 13 14 15 16 17 18 19 20
000
FTUS44 KLZK 050800 AAB
TAFPBF
TAF AMD
KPBF 050859Z 0509/0606 16003KT P6SM VCTS BKN050CB BKN250
      TEMPO 0509/0511 5SM -TSRA SCT025CB OVC100
     FM051100 00000KT 6SM BR SCT015 BKN050
      TEMPO 0511/0513 2SM BR BKN015
     FM051400 21005KT P6SM SCT015 BKN050
     FM051900 21006KT P6SM VCTS SCT035CB BKN100=

USA.gov is the U.S. government's official web portal to all federal, state and local government web resources and services.